sensor_id;sensor_type;location;lat;lon;timestamp;temperature;humidity
25302;DHT22;13243;50.888;4.724;2023-01-26T00:04:11;-0.10;99.90
25302;DHT22;13243;50.888;4.724;2023-01-26T00:09:13;-0.10;99.90
25302;DHT22;13243;50.888;4.724;2023-01-26T00:14:16;-0.10;99.90
25302;DHT22;13243;50.888;4.724;2023-01-26T00:19:17;0.00;99.90
25302;DHT22;13243;50.888;4.724;2023-01-26T00:24:19;0.00;99.90
25302;DHT22;13243;50.888;4.724;2023-01-26T00:29:21;-0.10;99.90
25302;DHT22;13243;50.888;4.724;2023-01-26T00:34:23;-0.20;99.90
25302;DHT22;13243;50.888;4.724;2023-01-26T00:39:25;-0.10;99.90
25302;DHT22;13243;50.888;4.724;2023-01-26T00:44:27;0.00;99.90
25302;DHT22;13243;50.888;4.724;2023-01-26T00:49:29;-0.10;99.90
25302;DHT22;13243;50.888;4.724;2023-01-26T00:54:31;0.00;99.90
25302;DHT22;13243;50.888;4.724;2023-01-26T00:59:33;-0.10;99.90
25302;DHT22;13243;50.888;4.724;2023-01-26T01:04:34;0.00;99.90
25302;DHT22;13243;50.888;4.724;2023-01-26T01:09:36;0.00;99.90
25302;DHT22;13243;50.888;4.724;2023-01-26T01:14:38;-0.10;99.90
25302;DHT22;13243;50.888;4.724;2023-01-26T01:19:40;0.00;99.90
25302;DHT22;13243;50.888;4.724;2023-01-26T01:24:42;0.00;99.90
25302;DHT22;13243;50.888;4.724;2023-01-26T01:29:44;-0.10;99.90
25302;DHT22;13243;50.888;4.724;2023-01-26T01:34:46;0.00;99.90
25302;DHT22;13243;50.888;4.724;2023-01-26T01:39:48;0.00;99.90
25302;DHT22;13243;50.888;4.724;2023-01-26T01:50:24;0.00;99.90
25302;DHT22;13243;50.888;4.724;2023-01-26T01:55:26;-0.10;99.90
25302;DHT22;13243;50.888;4.724;2023-01-26T02:00:28;0.20;99.90
25302;DHT22;13243;50.888;4.724;2023-01-26T02:05:33;0.00;99.90
25302;DHT22;13243;50.888;4.724;2023-01-26T02:10:36;0.00;99.90
25302;DHT22;13243;50.888;4.724;2023-01-26T02:15:38;0.10;99.90
25302;DHT22;13243;50.888;4.724;2023-01-26T02:21:03;0.10;99.90
25302;DHT22;13243;50.888;4.724;2023-01-26T02:26:17;0.10;99.90
25302;DHT22;13243;50.888;4.724;2023-01-26T02:31:19;0.10;99.90
25302;DHT22;13243;50.888;4.724;2023-01-26T02:36:26;0.10;99.90
25302;DHT22;13243;50.888;4.724;2023-01-26T02:41:28;0.20;99.90
25302;DHT22;13243;50.888;4.724;2023-01-26T02:46:48;0.20;99.90
25302;DHT22;13243;50.888;4.724;2023-01-26T02:51:51;0.20;99.90
25302;DHT22;13243;50.888;4.724;2023-01-26T02:56:52;0.30;99.90
25302;DHT22;13243;50.888;4.724;2023-01-26T03:01:55;0.30;99.90
25302;DHT22;13243;50.888;4.724;2023-01-26T03:06:57;0.30;99.90
25302;DHT22;13243;50.888;4.724;2023-01-26T03:11:59;0.30;99.90
25302;DHT22;13243;50.888;4.724;2023-01-26T03:17:01;0.40;99.90
25302;DHT22;13243;50.888;4.724;2023-01-26T03:22:03;0.40;99.90
25302;DHT22;13243;50.888;4.724;2023-01-26T03:27:23;0.30;99.90
25302;DHT22;13243;50.888;4.724;2023-01-26T03:32:28;0.30;99.90
25302;DHT22;13243;50.888;4.724;2023-01-26T03:37:30;0.40;99.90
25302;DHT22;13243;50.888;4.724;2023-01-26T03:42:37;0.40;99.90
25302;DHT22;13243;50.888;4.724;2023-01-26T03:48:09;0.40;99.90
25302;DHT22;13243;50.888;4.724;2023-01-26T03:53:29;0.40;99.90
25302;DHT22;13243;50.888;4.724;2023-01-26T03:58:53;0.50;99.90
25302;DHT22;13243;50.888;4.724;2023-01-26T04:03:56;0.50;99.90
25302;DHT22;13243;50.888;4.724;2023-01-26T04:09:16;0.50;99.90
25302;DHT22;13243;50.888;4.724;2023-01-26T04:14:18;0.50;99.90
25302;DHT22;13243;50.888;4.724;2023-01-26T04:19:51;0.50;99.90
25302;DHT22;13243;50.888;4.724;2023-01-26T04:25:12;0.50;99.90
25302;DHT22;13243;50.888;4.724;2023-01-26T04:30:15;0.50;99.90
25302;DHT22;13243;50.888;4.724;2023-01-26T04:35:17;0.40;99.90
25302;DHT22;13243;50.888;4.724;2023-01-26T04:40:19;0.50;99.90
25302;DHT22;13243;50.888;4.724;2023-01-26T04:45:21;0.60;99.90
25302;DHT22;13243;50.888;4.724;2023-01-26T04:50:23;0.50;99.90
25302;DHT22;13243;50.888;4.724;2023-01-26T04:55:25;0.50;99.90
25302;DHT22;13243;50.888;4.724;2023-01-26T05:00:27;0.50;99.90
25302;DHT22;13243;50.888;4.724;2023-01-26T05:05:28;0.60;99.90
25302;DHT22;13243;50.888;4.724;2023-01-26T05:10:31;0.50;99.90
25302;DHT22;13243;50.888;4.724;2023-01-26T05:15:33;0.60;99.90
25302;DHT22;13243;50.888;4.724;2023-01-26T05:20:35;0.70;99.90
25302;DHT22;13243;50.888;4.724;2023-01-26T05:25:37;0.60;99.90
25302;DHT22;13243;50.888;4.724;2023-01-26T05:30:39;0.60;99.90
25302;DHT22;13243;50.888;4.724;2023-01-26T05:35:41;0.70;99.90
25302;DHT22;13243;50.888;4.724;2023-01-26T05:40:44;0.80;99.90
25302;DHT22;13243;50.888;4.724;2023-01-26T05:45:46;0.70;99.90
25302;DHT22;13243;50.888;4.724;2023-01-26T05:50:47;0.70;99.90
25302;DHT22;13243;50.888;4.724;2023-01-26T05:55:49;0.70;99.90
25302;DHT22;13243;50.888;4.724;2023-01-26T06:00:51;0.70;99.90
25302;DHT22;13243;50.888;4.724;2023-01-26T06:05:53;0.80;99.90
25302;DHT22;13243;50.888;4.724;2023-01-26T06:10:59;0.80;99.90
25302;DHT22;13243;50.888;4.724;2023-01-26T06:16:02;0.80;99.90
25302;DHT22;13243;50.888;4.724;2023-01-26T06:21:03;0.90;99.90
25302;DHT22;13243;50.888;4.724;2023-01-26T06:26:05;0.80;99.90
25302;DHT22;13243;50.888;4.724;2023-01-26T06:31:10;0.80;99.90
25302;DHT22;13243;50.888;4.724;2023-01-26T06:36:14;0.80;99.90
25302;DHT22;13243;50.888;4.724;2023-01-26T06:41:16;1.00;99.90
25302;DHT22;13243;50.888;4.724;2023-01-26T06:46:18;0.90;99.90
25302;DHT22;13243;50.888;4.724;2023-01-26T06:56:22;0.90;99.90
25302;DHT22;13243;50.888;4.724;2023-01-26T07:01:25;0.90;99.90
25302;DHT22;13243;50.888;4.724;2023-01-26T07:06:27;1.10;99.90
25302;DHT22;13243;50.888;4.724;2023-01-26T07:11:29;1.00;99.90
25302;DHT22;13243;50.888;4.724;2023-01-26T07:16:33;1.00;99.90
25302;DHT22;13243;50.888;4.724;2023-01-26T07:21:35;0.90;99.90
25302;DHT22;13243;50.888;4.724;2023-01-26T07:26:37;0.90;99.90
25302;DHT22;13243;50.888;4.724;2023-01-26T07:31:39;1.00;99.90
25302;DHT22;13243;50.888;4.724;2023-01-26T07:36:42;1.00;99.90
25302;DHT22;13243;50.888;4.724;2023-01-26T07:41:44;1.00;99.90
25302;DHT22;13243;50.888;4.724;2023-01-26T07:46:46;1.10;99.90
25302;DHT22;13243;50.888;4.724;2023-01-26T07:51:47;1.00;99.90
25302;DHT22;13243;50.888;4.724;2023-01-26T07:56:53;1.00;99.90
25302;DHT22;13243;50.888;4.724;2023-01-26T08:01:55;1.00;99.90
25302;DHT22;13243;50.888;4.724;2023-01-26T08:06:57;1.10;99.90
25302;DHT22;13243;50.888;4.724;2023-01-26T08:11:59;1.00;99.90
25302;DHT22;13243;50.888;4.724;2023-01-26T08:17:02;1.00;99.90
25302;DHT22;13243;50.888;4.724;2023-01-26T08:22:04;1.60;99.90
25302;DHT22;13243;50.888;4.724;2023-01-26T08:27:05;1.10;99.90
25302;DHT22;13243;50.888;4.724;2023-01-26T08:32:07;1.10;99.90
25302;DHT22;13243;50.888;4.724;2023-01-26T08:37:10;1.10;99.90
25302;DHT22;13243;50.888;4.724;2023-01-26T08:42:11;1.10;99.90
25302;DHT22;13243;50.888;4.724;2023-01-26T08:47:13;1.10;99.90
25302;DHT22;13243;50.888;4.724;2023-01-26T08:52:15;1.10;99.90
25302;DHT22;13243;50.888;4.724;2023-01-26T08:57:17;1.00;99.90
25302;DHT22;13243;50.888;4.724;2023-01-26T09:02:19;1.10;99.90
25302;DHT22;13243;50.888;4.724;2023-01-26T09:07:21;1.10;99.90
25302;DHT22;13243;50.888;4.724;2023-01-26T09:12:23;1.10;99.90
25302;DHT22;13243;50.888;4.724;2023-01-26T09:17:25;1.10;99.90
25302;DHT22;13243;50.888;4.724;2023-01-26T09:22:27;1.20;99.90
25302;DHT22;13243;50.888;4.724;2023-01-26T09:27:28;1.20;99.90
25302;DHT22;13243;50.888;4.724;2023-01-26T09:32:30;1.30;99.90
25302;DHT22;13243;50.888;4.724;2023-01-26T09:37:32;1.20;99.90
25302;DHT22;13243;50.888;4.724;2023-01-26T09:53:19;1.40;99.90
25302;DHT22;13243;50.888;4.724;2023-01-26T09:58:37;1.50;99.90
25302;DHT22;13243;50.888;4.724;2023-01-26T10:03:59;1.50;99.90
25302;DHT22;13243;50.888;4.724;2023-01-26T10:14:42;1.60;99.90
25302;DHT22;13243;50.888;4.724;2023-01-26T10:19:59;1.70;99.90
25302;DHT22;13243;50.888;4.724;2023-01-26T10:25:14;1.60;99.90
25302;DHT22;13243;50.888;4.724;2023-01-26T10:30:18;1.70;99.90
25302;DHT22;13243;50.888;4.724;2023-01-26T10:35:24;1.60;99.90
25302;DHT22;13243;50.888;4.724;2023-01-26T10:40:26;1.70;99.90
25302;DHT22;13243;50.888;4.724;2023-01-26T10:45:32;1.70;99.90
25302;DHT22;13243;50.888;4.724;2023-01-26T10:50:34;1.80;99.90
25302;DHT22;13243;50.888;4.724;2023-01-26T10:55:36;1.80;99.90
25302;DHT22;13243;50.888;4.724;2023-01-26T11:00:38;1.90;99.90
25302;DHT22;13243;50.888;4.724;2023-01-26T11:05:41;1.90;99.90
25302;DHT22;13243;50.888;4.724;2023-01-26T11:10:51;2.00;99.90
25302;DHT22;13243;50.888;4.724;2023-01-26T11:16:19;1.90;99.90
25302;DHT22;13243;50.888;4.724;2023-01-26T11:21:27;2.00;99.90
25302;DHT22;13243;50.888;4.724;2023-01-26T11:32:02;2.00;99.90
25302;DHT22;13243;50.888;4.724;2023-01-26T11:53:42;2.20;99.90
25302;DHT22;13243;50.888;4.724;2023-01-26T11:58:54;2.30;99.90
25302;DHT22;13243;50.888;4.724;2023-01-26T12:03:58;2.40;99.90
25302;DHT22;13243;50.888;4.724;2023-01-26T12:19:34;2.40;99.90
25302;DHT22;13243;50.888;4.724;2023-01-26T12:24:42;2.50;99.90
25302;DHT22;13243;50.888;4.724;2023-01-26T12:41:03;2.70;99.90
25302;DHT22;13243;50.888;4.724;2023-01-26T12:46:08;2.70;99.90
25302;DHT22;13243;50.888;4.724;2023-01-26T12:51:26;2.80;99.90
25302;DHT22;13243;50.888;4.724;2023-01-26T12:56:38;2.90;99.90
25302;DHT22;13243;50.888;4.724;2023-01-26T13:01:41;3.00;99.90
25302;DHT22;13243;50.888;4.724;2023-01-26T13:06:43;3.10;99.90
25302;DHT22;13243;50.888;4.724;2023-01-26T13:11:59;3.20;99.90
25302;DHT22;13243;50.888;4.724;2023-01-26T13:22:38;3.50;99.90
25302;DHT22;13243;50.888;4.724;2023-01-26T13:27:54;3.70;99.90
25302;DHT22;13243;50.888;4.724;2023-01-26T13:33:10;3.70;99.90
25302;DHT22;13243;50.888;4.724;2023-01-26T13:53:45;4.30;99.90
25302;DHT22;13243;50.888;4.724;2023-01-26T13:58:48;4.30;99.90
25302;DHT22;13243;50.888;4.724;2023-01-26T14:04:01;4.40;99.90
25302;DHT22;13243;50.888;4.724;2023-01-26T14:09:04;4.40;99.90
25302;DHT22;13243;50.888;4.724;2023-01-26T14:14:19;4.70;99.90
25302;DHT22;13243;50.888;4.724;2023-01-26T14:19:23;4.70;99.90
25302;DHT22;13243;50.888;4.724;2023-01-26T14:29:37;4.80;99.90
25302;DHT22;13243;50.888;4.724;2023-01-26T14:34:50;4.70;99.90
25302;DHT22;13243;50.888;4.724;2023-01-26T14:45:29;4.90;99.90
25302;DHT22;13243;50.888;4.724;2023-01-26T14:50:32;5.00;99.90
25302;DHT22;13243;50.888;4.724;2023-01-26T14:55:35;5.00;99.90
25302;DHT22;13243;50.888;4.724;2023-01-26T15:00:37;5.10;99.90
25302;DHT22;13243;50.888;4.724;2023-01-26T15:05:39;5.10;99.90
25302;DHT22;13243;50.888;4.724;2023-01-26T15:16:19;5.30;99.90
25302;DHT22;13243;50.888;4.724;2023-01-26T15:21:22;5.30;99.90
25302;DHT22;13243;50.888;4.724;2023-01-26T15:26:30;5.30;99.90
25302;DHT22;13243;50.888;4.724;2023-01-26T15:31:37;5.30;99.90
25302;DHT22;13243;50.888;4.724;2023-01-26T15:36:49;5.40;99.90
25302;DHT22;13243;50.888;4.724;2023-01-26T15:46:58;5.30;99.90
25302;DHT22;13243;50.888;4.724;2023-01-26T15:52:00;5.40;99.90
25302;DHT22;13243;50.888;4.724;2023-01-26T15:57:02;5.40;99.90
25302;DHT22;13243;50.888;4.724;2023-01-26T16:02:16;5.20;99.90
25302;DHT22;13243;50.888;4.724;2023-01-26T16:07:18;5.30;99.90
25302;DHT22;13243;50.888;4.724;2023-01-26T16:12:20;5.20;99.90
25302;DHT22;13243;50.888;4.724;2023-01-26T16:17:37;5.30;99.90
25302;DHT22;13243;50.888;4.724;2023-01-26T16:22:39;5.20;99.90
25302;DHT22;13243;50.888;4.724;2023-01-26T16:27:40;5.20;99.90
25302;DHT22;13243;50.888;4.724;2023-01-26T16:32:42;5.20;99.90
25302;DHT22;13243;50.888;4.724;2023-01-26T16:37:45;5.20;99.90
25302;DHT22;13243;50.888;4.724;2023-01-26T16:42:49;5.20;99.90
25302;DHT22;13243;50.888;4.724;2023-01-26T16:47:53;5.30;99.90
25302;DHT22;13243;50.888;4.724;2023-01-26T16:52:56;5.20;99.90
25302;DHT22;13243;50.888;4.724;2023-01-26T16:57:57;5.20;99.90
25302;DHT22;13243;50.888;4.724;2023-01-26T17:02:59;5.30;99.90
25302;DHT22;13243;50.888;4.724;2023-01-26T17:08:01;5.20;99.90
25302;DHT22;13243;50.888;4.724;2023-01-26T17:13:03;5.30;99.90
25302;DHT22;13243;50.888;4.724;2023-01-26T17:18:05;5.30;99.90
25302;DHT22;13243;50.888;4.724;2023-01-26T17:23:07;5.30;99.90
25302;DHT22;13243;50.888;4.724;2023-01-26T17:28:09;5.30;99.90
25302;DHT22;13243;50.888;4.724;2023-01-26T17:33:11;5.30;99.90
25302;DHT22;13243;50.888;4.724;2023-01-26T17:38:13;5.20;99.90
25302;DHT22;13243;50.888;4.724;2023-01-26T17:43:15;5.40;99.90
25302;DHT22;13243;50.888;4.724;2023-01-26T17:48:17;5.30;99.90
25302;DHT22;13243;50.888;4.724;2023-01-26T17:53:21;5.40;99.90
25302;DHT22;13243;50.888;4.724;2023-01-26T17:58:25;5.40;99.90
25302;DHT22;13243;50.888;4.724;2023-01-26T18:03:27;5.40;99.90
25302;DHT22;13243;50.888;4.724;2023-01-26T18:08:29;5.40;99.90
25302;DHT22;13243;50.888;4.724;2023-01-26T18:13:31;5.30;99.90
25302;DHT22;13243;50.888;4.724;2023-01-26T18:18:33;5.30;99.90
25302;DHT22;13243;50.888;4.724;2023-01-26T18:23:36;5.30;99.90
25302;DHT22;13243;50.888;4.724;2023-01-26T18:28:39;5.30;99.90
25302;DHT22;13243;50.888;4.724;2023-01-26T18:33:43;5.30;99.90
25302;DHT22;13243;50.888;4.724;2023-01-26T18:38:54;5.30;99.90
25302;DHT22;13243;50.888;4.724;2023-01-26T18:43:56;5.30;99.90
25302;DHT22;13243;50.888;4.724;2023-01-26T18:48:59;5.30;99.90
25302;DHT22;13243;50.888;4.724;2023-01-26T18:54:02;5.50;99.90
25302;DHT22;13243;50.888;4.724;2023-01-26T18:59:05;5.30;99.90
25302;DHT22;13243;50.888;4.724;2023-01-26T19:04:10;5.30;99.90
25302;DHT22;13243;50.888;4.724;2023-01-26T19:09:14;5.30;99.90
25302;DHT22;13243;50.888;4.724;2023-01-26T19:14:16;5.30;99.90
25302;DHT22;13243;50.888;4.724;2023-01-26T19:19:18;5.30;99.90
25302;DHT22;13243;50.888;4.724;2023-01-26T19:24:20;5.10;99.90
25302;DHT22;13243;50.888;4.724;2023-01-26T19:29:22;5.10;99.90
25302;DHT22;13243;50.888;4.724;2023-01-26T19:34:24;5.20;99.90
25302;DHT22;13243;50.888;4.724;2023-01-26T19:39:28;5.20;99.90
25302;DHT22;13243;50.888;4.724;2023-01-26T19:44:32;5.10;99.90
25302;DHT22;13243;50.888;4.724;2023-01-26T19:49:34;5.20;99.90
25302;DHT22;13243;50.888;4.724;2023-01-26T19:54:36;5.10;99.90
25302;DHT22;13243;50.888;4.724;2023-01-26T19:59:38;5.10;99.90
25302;DHT22;13243;50.888;4.724;2023-01-26T20:04:39;5.10;99.90
25302;DHT22;13243;50.888;4.724;2023-01-26T20:09:41;5.10;99.90
25302;DHT22;13243;50.888;4.724;2023-01-26T20:14:43;5.10;99.90
25302;DHT22;13243;50.888;4.724;2023-01-26T20:19:46;5.10;99.90
25302;DHT22;13243;50.888;4.724;2023-01-26T20:24:48;5.10;99.90
25302;DHT22;13243;50.888;4.724;2023-01-26T20:29:50;5.00;99.90
25302;DHT22;13243;50.888;4.724;2023-01-26T20:34:52;5.10;99.90
25302;DHT22;13243;50.888;4.724;2023-01-26T20:39:54;5.10;99.90
25302;DHT22;13243;50.888;4.724;2023-01-26T20:44:55;5.00;99.90
25302;DHT22;13243;50.888;4.724;2023-01-26T20:49:59;5.00;99.90
25302;DHT22;13243;50.888;4.724;2023-01-26T20:55:03;5.00;99.90
25302;DHT22;13243;50.888;4.724;2023-01-26T21:00:08;5.00;99.90
25302;DHT22;13243;50.888;4.724;2023-01-26T21:05:10;5.00;99.90
25302;DHT22;13243;50.888;4.724;2023-01-26T21:10:15;5.00;99.90
25302;DHT22;13243;50.888;4.724;2023-01-26T21:15:19;5.10;99.90
25302;DHT22;13243;50.888;4.724;2023-01-26T21:20:21;5.10;99.90
25302;DHT22;13243;50.888;4.724;2023-01-26T21:25:24;5.00;99.90
25302;DHT22;13243;50.888;4.724;2023-01-26T21:30:26;5.00;99.90
25302;DHT22;13243;50.888;4.724;2023-01-26T21:35:29;5.00;99.90
25302;DHT22;13243;50.888;4.724;2023-01-26T21:40:33;5.00;99.90
25302;DHT22;13243;50.888;4.724;2023-01-26T21:45:35;5.00;99.90
25302;DHT22;13243;50.888;4.724;2023-01-26T21:50:56;4.90;99.90
25302;DHT22;13243;50.888;4.724;2023-01-26T21:56:17;5.00;99.90
25302;DHT22;13243;50.888;4.724;2023-01-26T22:01:23;5.00;99.90
25302;DHT22;13243;50.888;4.724;2023-01-26T22:06:26;5.10;99.90
25302;DHT22;13243;50.888;4.724;2023-01-26T22:11:28;5.00;99.90
25302;DHT22;13243;50.888;4.724;2023-01-26T22:16:31;5.00;99.90
25302;DHT22;13243;50.888;4.724;2023-01-26T22:21:33;5.00;99.90
25302;DHT22;13243;50.888;4.724;2023-01-26T22:26:35;5.00;99.90
25302;DHT22;13243;50.888;4.724;2023-01-26T22:31:37;5.00;99.90
25302;DHT22;13243;50.888;4.724;2023-01-26T22:36:40;5.00;99.90
25302;DHT22;13243;50.888;4.724;2023-01-26T22:41:42;5.00;99.90
25302;DHT22;13243;50.888;4.724;2023-01-26T22:46:44;5.00;99.90
25302;DHT22;13243;50.888;4.724;2023-01-26T22:51:46;5.00;99.90
25302;DHT22;13243;50.888;4.724;2023-01-26T22:56:48;5.00;99.90
25302;DHT22;13243;50.888;4.724;2023-01-26T23:01:49;4.90;99.90
25302;DHT22;13243;50.888;4.724;2023-01-26T23:06:51;4.90;99.90
25302;DHT22;13243;50.888;4.724;2023-01-26T23:11:53;4.90;99.90
25302;DHT22;13243;50.888;4.724;2023-01-26T23:16:56;4.90;99.90
25302;DHT22;13243;50.888;4.724;2023-01-26T23:21:58;4.90;99.90
25302;DHT22;13243;50.888;4.724;2023-01-26T23:26:59;4.90;99.90
25302;DHT22;13243;50.888;4.724;2023-01-26T23:32:01;4.90;99.90
25302;DHT22;13243;50.888;4.724;2023-01-26T23:37:03;4.90;99.90
25302;DHT22;13243;50.888;4.724;2023-01-26T23:42:05;4.90;99.90
25302;DHT22;13243;50.888;4.724;2023-01-26T23:47:07;4.90;99.90
25302;DHT22;13243;50.888;4.724;2023-01-26T23:52:09;4.90;99.90
25302;DHT22;13243;50.888;4.724;2023-01-26T23:57:11;4.90;99.90
